Time;durP1;ratioP1;P1;durP2;ratioP2;P2;SDS_P1;SDS_P2;PMS_P1;PMS_P2;Temp;Humidity;BMP_temperature;BMP_pressure;BME280_temperature;BME280_humidity;BME280_pressure;Samples;Min_cycle;Max_cycle;Signal;HPM_P1;HPM_P2
2023/01/15 00:01:29;;;;;;;0.82;0.50;;;7.80;92.20;;;;;;5155939;27;20034;-76
2023/01/15 00:03:57;;;;;;;0.90;0.60;;;7.80;92.20;;;;;;5156344;27;20042;-76
2023/01/15 00:06:24;;;;;;;1.10;0.47;;;7.90;92.20;;;;;;5139178;27;20042;-76
2023/01/15 00:08:51;;;;;;;1.63;0.40;;;7.80;92.20;;;;;;5120476;27;20050;-76
2023/01/15 00:11:17;;;;;;;0.65;0.25;;;7.80;92.20;;;;;;5157296;27;20034;-76
2023/01/15 00:13:42;;;;;;;0.40;0.30;;;7.80;92.20;;;;;;5156465;27;20038;-76
2023/01/15 00:16:14;;;;;;;2.22;0.38;;;7.80;92.10;;;;;;5139611;27;20038;-76
2023/01/15 00:18:40;;;;;;;;;;;7.80;92.10;;;;;;5157736;27;20038;-76
2023/01/15 00:21:08;;;;;;;1.70;0.50;;;7.80;92.10;;;;;;5157643;27;20430;-76
2023/01/15 00:28:52;;;;;;;1.75;0.60;;;7.70;92.00;;;;;;5159217;27;20053;-76
2023/01/15 00:31:17;;;;;;;2.72;0.85;;;7.70;91.90;;;;;;5139857;27;20478;-76
2023/01/15 00:33:43;;;;;;;2.15;0.68;;;7.80;91.90;;;;;;5157955;27;20074;-75
2023/01/15 00:36:08;;;;;;;3.13;0.85;;;7.70;91.80;;;;;;5159520;27;20045;-76
2023/01/15 00:38:34;;;;;;;3.08;0.85;;;7.70;91.80;;;;;;5157916;27;20038;-76
2023/01/15 00:41:00;;;;;;;1.45;0.60;;;7.70;91.80;;;;;;5105232;27;20067;-76
2023/01/15 00:43:25;;;;;;;1.10;0.50;;;7.80;91.80;;;;;;5140776;27;20084;-76
2023/01/15 00:45:51;;;;;;;1.33;0.60;;;7.70;91.80;;;;;;5140282;27;20371;-76
2023/01/15 00:48:16;;;;;;;1.95;0.73;;;7.70;91.80;;;;;;5122910;27;20043;-76
2023/01/15 00:50:42;;;;;;;1.23;0.52;;;7.70;91.70;;;;;;5142072;27;20066;-76
2023/01/15 00:53:08;;;;;;;2.10;0.50;;;7.70;91.70;;;;;;5161069;27;20043;-76
2023/01/15 00:55:33;;;;;;;1.20;0.47;;;7.70;91.70;;;;;;5161820;27;20031;-77
2023/01/15 00:57:59;;;;;;;2.63;0.98;;;7.70;91.60;;;;;;5126584;27;20043;-76
2023/01/15 01:00:24;;;;;;;2.13;0.70;;;7.70;91.60;;;;;;5140361;27;20069;-76
2023/01/15 01:02:50;;;;;;;2.67;0.63;;;7.60;91.60;;;;;;5160587;27;20081;-76
2023/01/15 01:05:15;;;;;;;2.42;0.80;;;7.70;91.60;;;;;;5160982;27;20034;-75
2023/01/15 01:07:41;;;;;;;4.20;0.70;;;7.70;91.50;;;;;;5161777;27;20034;-76
2023/01/15 01:10:08;;;;;;;3.13;0.95;;;7.70;91.50;;;;;;5160371;27;20041;-76
2023/01/15 01:12:33;;;;;;;1.63;0.70;;;7.70;91.50;;;;;;5124989;27;20144;-76
2023/01/15 01:14:59;;;;;;;4.03;0.80;;;7.70;91.50;;;;;;5142136;27;20047;-76
2023/01/15 01:17:25;;;;;;;2.50;0.90;;;7.70;91.40;;;;;;5160499;27;20046;-76
2023/01/15 01:19:50;;;;;;;4.05;0.90;;;7.70;91.40;;;;;;5143057;27;20057;-76
2023/01/15 01:22:16;;;;;;;2.25;0.75;;;7.70;91.30;;;;;;5160797;27;20416;-76
2023/01/15 01:24:41;;;;;;;1.95;0.57;;;7.70;91.30;;;;;;5160063;27;20503;-75
2023/01/15 01:27:07;;;;;;;2.25;0.77;;;7.60;91.30;;;;;;5161451;27;20031;-76
2023/01/15 01:29:33;;;;;;;3.13;0.80;;;7.60;91.30;;;;;;5124278;27;20038;-76
2023/01/15 01:31:58;;;;;;;3.50;0.70;;;7.60;91.30;;;;;;5124174;27;20182;-76
2023/01/15 01:34:24;;;;;;;1.50;0.70;;;7.60;91.20;;;;;;5159404;27;20042;-76
2023/01/15 01:36:50;;;;;;;1.42;0.65;;;7.60;91.20;;;;;;5143528;27;20039;-76
2023/01/15 01:39:17;;;;;;;3.13;0.73;;;7.60;91.30;;;;;;5159679;27;20035;-76
2023/01/15 01:41:44;;;;;;;3.22;0.70;;;7.50;91.20;;;;;;5160911;27;20087;-76
2023/01/15 01:44:46;;;;;;;1.90;0.55;;;7.50;91.20;;;;;;5141066;27;20057;-76
2023/01/15 01:47:21;;;;;;;2.25;0.60;;;7.60;91.20;;;;;;5126723;27;20494;-76
2023/01/15 01:49:50;;;;;;;1.70;0.73;;;7.50;91.20;;;;;;5160657;27;20401;-76
2023/01/15 01:52:22;;;;;;;3.50;0.82;;;7.50;91.10;;;;;;5159756;27;20042;-76
2023/01/15 01:54:50;;;;;;;3.63;0.55;;;7.40;91.10;;;;;;5107523;27;20035;-76
2023/01/15 01:57:18;;;;;;;2.65;0.63;;;7.50;91.00;;;;;;5141519;27;20521;-76
2023/01/15 01:59:44;;;;;;;2.40;0.73;;;7.50;91.00;;;;;;5139293;27;20047;-76
2023/01/15 02:02:10;;;;;;;4.55;0.80;;;7.40;91.00;;;;;;5140279;27;20042;-76
2023/01/15 02:04:37;;;;;;;3.75;0.93;;;7.40;91.00;;;;;;5139647;27;20031;-76
2023/01/15 02:07:03;;;;;;;2.63;0.70;;;7.40;90.90;;;;;;5159967;27;20035;-76
2023/01/15 02:09:28;;;;;;;1.50;0.88;;;7.50;90.90;;;;;;5123164;27;20394;-76
2023/01/15 02:12:00;;;;;;;1.60;0.70;;;7.40;90.90;;;;;;5159169;27;20072;-76
2023/01/15 02:14:43;;;;;;;1.33;0.60;;;7.40;90.90;;;;;;5159191;27;20049;-76
2023/01/15 02:17:15;;;;;;;1.33;0.47;;;7.40;90.90;;;;;;5159025;27;20030;-76
2023/01/15 02:20:09;;;;;;;2.63;0.75;;;7.40;90.80;;;;;;5158116;27;20070;-76
2023/01/15 02:23:02;;;;;;;2.78;0.60;;;7.30;90.90;;;;;;5158107;27;20084;-76
2023/01/15 02:26:00;;;;;;;2.55;0.65;;;7.30;90.90;;;;;;5157971;27;20039;-76
2023/01/15 02:28:37;;;;;;;1.70;0.70;;;7.30;90.90;;;;;;5142263;27;20046;-76
2023/01/15 02:31:20;;;;;;;1.70;0.60;;;7.30;90.80;;;;;;5137714;27;20043;-75
2023/01/15 02:33:54;;;;;;;2.53;0.80;;;7.20;90.80;;;;;;5158643;27;20046;-76
2023/01/15 02:36:23;;;;;;;3.40;0.90;;;7.20;90.80;;;;;;5139172;27;20034;-76
2023/01/15 02:38:52;;;;;;;3.85;0.82;;;7.30;90.80;;;;;;5159797;27;20034;-75
2023/01/15 02:41:24;;;;;;;2.38;0.68;;;7.30;90.70;;;;;;5139811;27;20042;-75
2023/01/15 02:43:53;;;;;;;0.40;0.30;;;7.30;90.80;;;;;;5157308;27;20051;-75
2023/01/15 02:46:23;;;;;;;1.83;0.52;;;7.20;90.70;;;;;;5138894;27;20046;-75
2023/01/15 02:48:53;;;;;;;1.05;0.60;;;7.10;90.70;;;;;;5139417;27;20051;-75
2023/01/15 02:51:24;;;;;;;1.65;0.70;;;7.10;90.70;;;;;;5103399;27;20495;-75
2023/01/15 02:53:54;;;;;;;1.85;0.50;;;7.10;90.70;;;;;;5156651;27;20038;-75
2023/01/15 02:56:24;;;;;;;1.23;0.57;;;7.20;90.70;;;;;;5157671;27;20416;-76
2023/01/15 02:58:53;;;;;;;2.50;0.60;;;7.20;90.70;;;;;;5106321;27;20485;-76
2023/01/15 03:01:25;;;;;;;3.28;0.70;;;7.10;90.70;;;;;;5139690;27;20038;-76
2023/01/15 03:04:02;;;;;;;1.95;0.73;;;7.20;90.60;;;;;;5121050;27;20068;-76
2023/01/15 03:06:43;;;;;;;1.77;0.70;;;7.20;90.60;;;;;;5158023;27;20038;-76
2023/01/15 03:09:09;;;;;;;2.28;0.70;;;7.10;90.60;;;;;;5121566;27;20154;-76
2023/01/15 03:11:43;;;;;;;2.17;0.73;;;7.10;90.50;;;;;;5156572;27;20050;-76
2023/01/15 03:14:18;;;;;;;2.28;0.60;;;7.10;90.50;;;;;;5157782;27;20035;-75
2023/01/15 03:16:51;;;;;;;2.65;0.90;;;7.10;90.50;;;;;;5157856;27;20035;-76
2023/01/15 03:19:26;;;;;;;1.23;0.55;;;7.10;90.50;;;;;;5121139;27;20606;-75
2023/01/15 03:22:06;;;;;;;1.35;0.40;;;7.00;90.50;;;;;;5157736;27;20046;-75
2023/01/15 03:24:39;;;;;;;2.53;0.80;;;7.00;90.50;;;;;;5157086;27;20054;-75
2023/01/15 03:27:05;;;;;;;1.88;0.70;;;7.00;90.50;;;;;;5137685;27;20034;-77
2023/01/15 03:29:37;;;;;;;1.48;0.60;;;7.00;90.50;;;;;;5121274;27;20050;-76
2023/01/15 03:32:03;;;;;;;;;;;7.10;90.50;;;;;;5156304;27;20756;-76
2023/01/15 03:34:44;;;;;;;2.72;0.70;;;7.00;90.50;;;;;;5155550;27;19936;-76
2023/01/15 03:37:10;;;;;;;1.85;0.63;;;7.00;90.40;;;;;;5156916;27;20043;-76
2023/01/15 03:39:36;;;;;;;2.47;0.50;;;7.00;90.40;;;;;;5157016;27;20492;-76
2023/01/15 03:42:17;;;;;;;2.22;0.60;;;7.00;90.40;;;;;;5137834;27;20121;-76
2023/01/15 03:44:56;;;;;;;2.25;0.70;;;6.90;90.40;;;;;;5155975;27;20434;-76
2023/01/15 03:47:49;;;;;;;1.40;0.57;;;7.00;90.40;;;;;;5155510;27;20043;-76
2023/01/15 03:50:32;;;;;;;3.05;0.60;;;6.90;90.40;;;;;;5156134;27;20068;-76
2023/01/15 03:53:18;;;;;;;2.13;0.60;;;6.90;90.40;;;;;;5157086;27;20038;-76
2023/01/15 03:56:00;;;;;;;1.83;0.63;;;7.10;90.40;;;;;;5156122;27;20046;-75
2023/01/15 03:58:31;;;;;;;0.70;0.60;;;6.90;90.30;;;;;;5157403;27;20074;-76
2023/01/15 04:01:01;;;;;;;1.17;0.63;;;6.90;90.30;;;;;;5135708;27;20046;-76
2023/01/15 04:03:29;;;;;;;3.17;0.85;;;6.90;90.30;;;;;;5156246;27;20038;-76
2023/01/15 04:05:57;;;;;;;1.92;0.68;;;6.80;90.30;;;;;;5155520;27;20038;-76
2023/01/15 04:08:26;;;;;;;2.17;0.70;;;6.90;90.30;;;;;;5155448;27;20095;-75
2023/01/15 04:10:55;;;;;;;3.75;0.57;;;6.90;90.30;;;;;;5156213;27;20092;-76
2023/01/15 04:13:21;;;;;;;2.28;0.75;;;6.90;90.30;;;;;;5120614;27;20049;-75
2023/01/15 04:15:47;;;;;;;2.47;0.60;;;6.80;90.20;;;;;;5155007;27;20046;-75
2023/01/15 04:18:13;;;;;;;0.65;0.50;;;6.90;90.30;;;;;;5136859;27;20046;-76
2023/01/15 04:20:39;;;;;;;2.65;0.65;;;6.80;90.30;;;;;;5136616;27;20086;-75
2023/01/15 04:23:04;;;;;;;2.50;0.47;;;6.80;90.60;;;;;;5137283;27;20039;-76
2023/01/15 04:25:30;;;;;;;2.97;0.77;;;6.80;90.30;;;;;;5136845;27;20042;-75
2023/01/15 04:27:56;;;;;;;2.78;0.70;;;6.80;90.30;;;;;;5136028;27;20046;-75
2023/01/15 04:30:22;;;;;;;1.42;0.45;;;6.80;90.20;;;;;;5135849;27;20102;-75
2023/01/15 04:32:49;;;;;;;1.73;0.77;;;6.80;90.30;;;;;;5154575;27;20038;-77
2023/01/15 04:35:15;;;;;;;2.10;0.80;;;6.80;90.30;;;;;;5134936;27;20084;-75
2023/01/15 04:37:41;;;;;;;2.03;0.68;;;6.70;90.30;;;;;;5155551;27;20039;-76
2023/01/15 04:40:08;;;;;;;3.00;0.73;;;6.70;90.20;;;;;;5136023;27;20035;-75
2023/01/15 04:45:19;;;;;;;1.13;0.50;;;6.70;90.20;;;;;;5155201;27;20056;-76
2023/01/15 04:47:44;;;;;;;2.78;0.60;;;6.70;90.20;;;;;;5136731;27;20047;-76
2023/01/15 04:50:10;;;;;;;2.28;0.65;;;6.70;90.20;;;;;;5155382;27;20039;-75
2023/01/15 04:52:36;;;;;;;2.50;0.70;;;6.70;90.20;;;;;;5135061;27;20035;-76
2023/01/15 04:55:03;;;;;;;1.67;0.70;;;6.70;90.20;;;;;;5155067;27;20046;-75
2023/01/15 04:57:28;;;;;;;2.80;0.85;;;6.60;90.20;;;;;;5154893;27;20042;-75
2023/01/15 04:59:54;;;;;;;2.35;0.90;;;6.70;90.20;;;;;;5154786;27;20042;-76
2023/01/15 05:02:20;;;;;;;2.00;0.70;;;6.70;90.20;;;;;;5154659;27;20075;-76
2023/01/15 05:04:45;;;;;;;2.90;0.80;;;6.70;90.20;;;;;;5154938;27;20042;-76
2023/01/15 05:07:11;;;;;;;1.85;0.55;;;6.70;90.20;;;;;;5154599;27;20402;-76
2023/01/15 05:09:37;;;;;;;1.73;0.60;;;6.70;90.10;;;;;;5136065;27;20043;-76
2023/01/15 05:12:02;;;;;;;3.17;0.80;;;6.70;90.10;;;;;;5136290;27;20038;-76
2023/01/15 05:14:28;;;;;;;1.63;0.47;;;6.70;90.10;;;;;;5155047;27;20478;-76
2023/01/15 05:16:54;;;;;;;1.80;0.57;;;6.70;90.10;;;;;;5155253;27;20377;-76
2023/01/15 05:19:19;;;;;;;3.50;0.60;;;6.70;90.10;;;;;;5119152;27;20066;-76
2023/01/15 05:21:45;;;;;;;2.28;0.68;;;6.70;90.10;;;;;;5135938;27;20402;-76
2023/01/15 05:24:14;;;;;;;1.15;0.40;;;6.70;90.10;;;;;;5154415;27;20521;-75
2023/01/15 05:26:40;;;;;;;0.80;0.47;;;6.70;90.10;;;;;;5135779;27;20054;-76
2023/01/15 05:29:06;;;;;;;1.90;0.70;;;6.60;90.10;;;;;;5154036;27;20461;-75
2023/01/15 05:31:32;;;;;;;0.95;0.65;;;6.60;90.20;;;;;;5135648;27;20035;-75
2023/01/15 05:33:58;;;;;;;2.10;0.40;;;6.50;90.20;;;;;;5153777;27;20187;-75
2023/01/15 05:36:27;;;;;;;0.65;0.40;;;6.50;90.20;;;;;;5138418;27;20034;-75
2023/01/15 05:38:54;;;;;;;2.38;0.43;;;6.40;90.20;;;;;;5158531;27;20046;-75
2023/01/15 05:44:05;;;;;;;6.28;0.77;;;6.50;90.30;;;;;;5141416;27;20045;-75
2023/01/15 05:46:33;;;;;;;2.78;0.80;;;6.50;90.20;;;;;;5122059;27;20051;-75
2023/01/15 05:49:01;;;;;;;2.38;0.70;;;6.50;90.20;;;;;;5139500;27;20085;-75
2023/01/15 05:51:27;;;;;;;2.33;0.73;;;6.40;90.10;;;;;;5138973;27;20039;-76
2023/01/15 05:53:52;;;;;;;3.08;1.17;;;6.50;90.10;;;;;;5158215;27;20035;-76
2023/01/15 05:56:18;;;;;;;2.70;0.90;;;6.40;90.10;;;;;;5158187;27;20038;-75
2023/01/15 05:58:43;;;;;;;2.88;0.88;;;6.40;90.10;;;;;;5138288;27;20092;-75
2023/01/15 06:01:10;;;;;;;0.98;0.43;;;6.40;90.00;;;;;;5157255;27;20081;-76
2023/01/15 06:03:36;;;;;;;2.50;0.90;;;6.40;90.10;;;;;;5138930;27;20043;-76
2023/01/15 06:06:02;;;;;;;1.92;0.60;;;6.40;90.10;;;;;;5157649;27;20382;-76
2023/01/15 06:08:28;;;;;;;2.17;0.75;;;6.30;90.00;;;;;;5138148;27;20505;-76
2023/01/15 06:10:54;;;;;;;3.33;0.80;;;6.40;90.00;;;;;;5139257;27;20038;-75
2023/01/15 06:13:20;;;;;;;2.92;1.00;;;6.40;90.00;;;;;;5137508;27;20035;-75
2023/01/15 06:15:45;;;;;;;4.10;0.70;;;6.40;90.00;;;;;;5119899;27;20490;-75
2023/01/15 06:18:11;;;;;;;1.25;0.63;;;6.40;89.90;;;;;;5156454;27;20038;-75
2023/01/15 06:20:38;;;;;;;1.65;0.63;;;6.40;89.80;;;;;;5138128;27;20034;-75
2023/01/15 06:23:04;;;;;;;2.88;0.85;;;6.40;89.90;;;;;;5157195;27;20126;-76
2023/01/15 06:25:36;;;;;;;3.72;0.77;;;6.30;89.80;;;;;;5139185;27;20073;-75
2023/01/15 06:28:04;;;;;;;3.08;0.70;;;6.40;89.80;;;;;;5137138;27;20046;-75
2023/01/15 06:30:29;;;;;;;2.28;0.77;;;6.30;89.80;;;;;;5156798;27;20478;-76
2023/01/15 06:32:55;;;;;;;2.22;0.80;;;6.40;89.70;;;;;;5138355;27;20054;-76
2023/01/15 06:35:21;;;;;;;2.28;0.60;;;6.30;89.60;;;;;;5137558;27;20058;-76
2023/01/15 06:37:48;;;;;;;4.15;0.93;;;6.30;89.50;;;;;;5156520;27;20083;-76
2023/01/15 06:40:15;;;;;;;3.65;0.70;;;6.30;89.50;;;;;;5138955;27;20074;-76
2023/01/15 06:47:58;;;;;;;3.58;0.90;;;6.30;89.40;;;;;;5140151;27;20039;-75
2023/01/15 06:50:24;;;;;;;1.98;0.57;;;6.30;89.30;;;;;;5156108;27;20046;-75
2023/01/15 06:52:50;;;;;;;2.75;0.70;;;6.30;89.30;;;;;;5119835;27;20039;-76
2023/01/15 06:55:17;;;;;;;2.58;0.65;;;6.30;89.20;;;;;;5137811;27;20050;-75
2023/01/15 06:57:43;;;;;;;4.35;0.90;;;6.30;89.20;;;;;;5138328;27;20052;-75
2023/01/15 07:00:11;;;;;;;2.92;0.70;;;6.40;89.20;;;;;;5120267;27;20106;-75
2023/01/15 07:02:37;;;;;;;2.90;0.60;;;6.30;89.10;;;;;;5137589;27;20099;-75
2023/01/15 07:05:03;;;;;;;4.15;1.02;;;6.30;89.20;;;;;;5157000;27;20123;-76
2023/01/15 07:07:29;;;;;;;4.20;0.75;;;6.30;89.20;;;;;;5136455;27;20101;-76
2023/01/15 07:09:55;;;;;;;2.75;0.80;;;6.30;89.10;;;;;;5155983;27;20130;-75
2023/01/15 07:12:21;;;;;;;1.88;0.70;;;6.40;89.00;;;;;;5120475;27;20149;-76
2023/01/15 07:14:47;;;;;;;4.95;0.82;;;6.40;88.90;;;;;;5137850;27;20038;-75
2023/01/15 07:17:13;;;;;;;2.78;0.60;;;6.30;88.80;;;;;;5156147;27;20041;-76
2023/01/15 07:19:39;;;;;;;3.28;0.75;;;6.30;88.70;;;;;;5136865;27;20038;-76
2023/01/15 07:22:06;;;;;;;2.00;0.90;;;6.30;88.70;;;;;;5135636;27;20481;-74
2023/01/15 07:24:32;;;;;;;0.75;0.50;;;6.30;88.70;;;;;;5155513;27;20031;-74
2023/01/15 07:26:58;;;;;;;2.17;0.40;;;6.30;88.80;;;;;;5136462;27;20485;-75
2023/01/15 07:29:23;;;;;;;3.38;1.00;;;6.20;88.90;;;;;;5155430;27;20171;-75
2023/01/15 07:31:50;;;;;;;2.58;0.90;;;6.10;88.90;;;;;;5155052;27;20524;-75
2023/01/15 07:34:15;;;;;;;1.67;0.45;;;6.10;89.10;;;;;;5155422;27;20087;-74
2023/01/15 07:36:41;;;;;;;2.63;0.75;;;6.00;89.10;;;;;;5155168;27;20479;-74
2023/01/15 07:39:09;;;;;;;3.05;0.60;;;6.00;89.30;;;;;;5135716;27;20481;-75
2023/01/15 07:52:19;;;;;;;2.05;0.60;;;6.00;89.00;;;;;;5138407;27;20065;-74
2023/01/15 07:54:46;;;;;;;3.33;1.00;;;5.90;89.00;;;;;;5119199;27;20030;-74
2023/01/15 07:57:14;;;;;;;6.05;1.13;;;5.90;89.00;;;;;;5154426;27;20034;-75
2023/01/15 07:59:40;;;;;;;2.50;0.80;;;5.90;88.90;;;;;;5153875;27;20045;-76
2023/01/15 08:02:05;;;;;;;3.90;1.15;;;6.00;88.90;;;;;;5154381;27;20038;-74
2023/01/15 08:04:31;;;;;;;4.93;0.95;;;6.00;88.80;;;;;;5154891;27;20157;-75
2023/01/15 08:07:00;;;;;;;4.28;1.10;;;6.00;88.80;;;;;;5154881;27;20058;-74
2023/01/15 08:09:26;;;;;;;2.55;1.00;;;6.00;88.70;;;;;;5136113;27;20043;-75
2023/01/15 08:17:08;;;;;;;3.22;0.95;;;5.90;88.60;;;;;;5154237;27;20038;-74
2023/01/15 08:19:33;;;;;;;2.75;0.88;;;5.90;88.60;;;;;;5101525;27;20042;-75
2023/01/15 08:22:00;;;;;;;0.98;0.50;;;5.90;88.60;;;;;;5154680;27;20038;-75
2023/01/15 08:24:27;;;;;;;3.10;0.88;;;5.90;88.50;;;;;;5135768;27;20046;-75
2023/01/15 08:26:53;;;;;;;2.72;0.85;;;5.90;88.50;;;;;;5135847;27;20035;-74
2023/01/15 08:29:19;;;;;;;1.77;0.70;;;5.90;88.40;;;;;;5154522;27;20436;-74
2023/01/15 08:31:44;;;;;;;2.13;0.65;;;5.90;88.40;;;;;;5154027;27;20414;-74
2023/01/15 08:34:10;;;;;;;1.05;0.55;;;5.90;88.40;;;;;;5135587;27;20035;-74
2023/01/15 08:36:36;;;;;;;2.78;0.57;;;5.90;88.30;;;;;;5154069;27;20420;-74
2023/01/15 08:39:02;;;;;;;1.77;0.55;;;5.90;88.30;;;;;;5153933;27;20042;-75
2023/01/15 08:41:29;;;;;;;2.13;1.20;;;5.90;88.30;;;;;;5135427;27;20042;-75
2023/01/15 08:43:54;;;;;;;2.13;0.82;;;6.00;88.20;;;;;;5153965;27;20063;-74
2023/01/15 08:46:20;;;;;;;2.22;0.77;;;5.90;88.00;;;;;;5135608;27;20051;-74
2023/01/15 08:48:47;;;;;;;3.25;0.85;;;6.00;88.00;;;;;;5134092;27;20039;-74
2023/01/15 08:51:13;;;;;;;3.22;0.75;;;6.00;87.90;;;;;;5135142;27;20035;-74
2023/01/15 08:53:39;;;;;;;4.90;1.10;;;6.00;87.90;;;;;;5135929;27;20505;-75
2023/01/15 08:56:12;;;;;;;3.05;1.13;;;6.00;87.70;;;;;;5135192;27;20398;-75
2023/01/15 08:58:38;;;;;;;2.80;0.68;;;6.10;88.20;;;;;;5118070;27;20042;-75
2023/01/15 09:01:07;;;;;;;7.32;1.38;;;6.10;87.30;;;;;;5134901;27;20042;-74
2023/01/15 09:03:33;;;;;;;2.40;1.02;;;6.10;87.10;;;;;;5153537;27;20130;-75
2023/01/15 09:05:59;;;;;;;4.47;0.80;;;6.20;87.10;;;;;;5153513;27;20045;-74
2023/01/15 09:08:26;;;;;;;2.53;0.90;;;6.20;87.00;;;;;;5134851;27;20061;-74
2023/01/15 09:10:57;;;;;;;5.65;0.88;;;6.20;86.90;;;;;;5155516;27;20034;-75
2023/01/15 09:13:24;;;;;;;3.05;1.27;;;6.20;86.80;;;;;;5138387;27;20497;-74
2023/01/15 09:15:49;;;;;;;3.35;1.00;;;6.20;86.60;;;;;;5138335;27;20071;-74
2023/01/15 09:18:18;;;;;;;3.38;0.80;;;6.20;86.50;;;;;;5157058;27;20120;-74
2023/01/15 09:20:44;;;;;;;2.17;0.93;;;6.20;86.50;;;;;;5157227;27;20046;-74
2023/01/15 09:23:10;;;;;;;2.00;0.80;;;6.30;86.50;;;;;;5157461;27;20047;-75
2023/01/15 09:25:36;;;;;;;2.67;0.80;;;6.30;86.40;;;;;;5157029;27;20090;-75
2023/01/15 09:28:01;;;;;;;3.35;1.05;;;6.30;87.00;;;;;;5138220;27;20061;-74
2023/01/15 09:30:28;;;;;;;2.05;0.90;;;6.40;86.30;;;;;;5121297;27;20042;-75
2023/01/15 09:32:54;;;;;;;6.13;0.85;;;6.30;86.10;;;;;;5156797;27;20113;-74
2023/01/15 09:35:21;;;;;;;4.30;1.13;;;6.30;85.90;;;;;;5156651;27;20126;-74
2023/01/15 09:37:54;;;;;;;2.95;0.82;;;6.30;85.80;;;;;;5156765;27;20042;-74
2023/01/15 09:40:55;;;;;;;4.13;1.05;;;6.40;85.80;;;;;;5156691;27;20481;-75
2023/01/15 09:43:46;;;;;;;3.40;0.77;;;6.40;85.90;;;;;;5156397;27;20397;-74
2023/01/15 09:46:20;;;;;;;3.08;0.88;;;6.40;85.90;;;;;;5156797;27;20125;-74
2023/01/15 09:49:09;;;;;;;2.67;0.93;;;6.40;85.80;;;;;;5157022;27;20077;-74
2023/01/15 09:51:54;;;;;;;3.78;1.10;;;6.40;85.80;;;;;;5157411;27;20066;-76
2023/01/15 09:54:53;;;;;;;2.42;0.82;;;6.50;85.80;;;;;;5157888;27;20034;-76
2023/01/15 09:57:21;;;;;;;2.35;0.90;;;6.50;85.80;;;;;;5139845;27;20047;-75
2023/01/15 09:59:49;;;;;;;5.15;1.08;;;6.50;85.70;;;;;;5157977;27;20087;-75
2023/01/15 10:02:39;;;;;;;2.58;0.82;;;6.50;85.60;;;;;;5138402;27;20482;-75
2023/01/15 10:05:29;;;;;;;4.25;0.82;;;6.60;85.60;;;;;;5156782;27;20482;-76
2023/01/15 10:08:02;;;;;;;3.83;0.93;;;6.70;85.40;;;;;;5138058;27;20069;-76
2023/01/15 10:10:34;;;;;;;3.78;0.90;;;6.70;85.20;;;;;;5156609;27;20119;-76
2023/01/15 10:13:09;;;;;;;3.97;1.13;;;6.80;85.10;;;;;;5156490;27;20537;-75
2023/01/15 10:15:40;;;;;;;4.70;1.40;;;7.00;85.00;;;;;;5156387;27;20035;-75
2023/01/15 10:18:07;;;;;;;6.68;1.35;;;6.90;84.60;;;;;;5138736;27;20088;-76
2023/01/15 10:21:07;;;;;;;1.92;0.77;;;7.00;84.40;;;;;;5157203;27;20046;-76
2023/01/15 10:23:40;;;;;;;4.10;1.02;;;7.00;84.20;;;;;;5143912;27;20038;-76
2023/01/15 10:26:17;;;;;;;5.75;1.23;;;7.00;84.00;;;;;;5122275;27;20126;-75
2023/01/15 10:28:57;;;;;;;4.47;1.30;;;7.00;83.90;;;;;;5157531;27;20099;-76
2023/01/15 10:31:34;;;;;;;2.80;1.02;;;7.10;83.90;;;;;;5138485;27;20031;-75
2023/01/15 10:34:26;;;;;;;6.57;1.42;;;7.10;83.90;;;;;;5122940;27;20042;-76
2023/01/15 10:37:00;;;;;;;4.53;1.52;;;7.10;83.90;;;;;;5156481;27;20105;-76
2023/01/15 10:39:50;;;;;;;5.38;1.30;;;7.10;83.80;;;;;;5156876;27;20062;-76
2023/01/15 10:42:51;;;;;;;3.45;1.17;;;7.10;83.70;;;;;;5143602;27;20126;-76
2023/01/15 10:45:22;;;;;;;4.35;1.02;;;7.10;83.40;;;;;;5126136;27;20042;-75
2023/01/15 10:47:56;;;;;;;4.03;1.13;;;7.20;83.30;;;;;;5139663;27;20039;-76
2023/01/15 10:50:25;;;;;;;4.03;1.08;;;7.40;83.20;;;;;;5157235;27;20035;-76
2023/01/15 10:53:06;;;;;;;3.08;0.90;;;7.40;82.90;;;;;;5119563;27;20027;-76
2023/01/15 10:55:37;;;;;;;3.75;1.13;;;7.50;82.70;;;;;;5157859;27;20043;-76
2023/01/15 10:58:21;;;;;;;6.15;1.42;;;7.40;82.50;;;;;;5156782;27;20083;-76
2023/01/15 11:00:53;;;;;;;3.78;1.52;;;7.40;82.60;;;;;;5137172;27;20099;-76
2023/01/15 11:03:25;;;;;;;4.28;0.98;;;7.50;82.70;;;;;;5138417;27;20081;-75
2023/01/15 11:05:51;;;;;;;1.73;0.80;;;7.50;82.70;;;;;;5139456;27;20424;-76
2023/01/15 11:08:27;;;;;;;4.72;1.10;;;7.50;82.60;;;;;;5156212;27;20058;-75
2023/01/15 11:10:54;;;;;;;3.33;1.08;;;7.50;82.50;;;;;;5156347;27;20516;-77
2023/01/15 11:21:22;;;;;;;4.97;1.30;;;7.70;81.60;;;;;;5140698;27;20046;-75
2023/01/15 11:23:48;;;;;;;3.13;0.93;;;7.70;81.50;;;;;;5121263;27;20039;-75
2023/01/15 11:26:21;;;;;;;5.35;1.25;;;7.70;81.40;;;;;;5138333;27;20043;-75
2023/01/15 11:28:48;;;;;;;6.00;1.70;;;7.80;81.30;;;;;;5138231;27;20043;-76
2023/01/15 11:31:15;;;;;;;5.53;1.58;;;7.60;81.30;;;;;;5120638;27;20046;-76
2023/01/15 11:33:58;;;;;;;6.78;1.23;;;7.60;81.60;;;;;;5136681;27;20091;-76
2023/01/15 11:36:26;;;;;;;5.93;1.23;;;7.50;82.00;;;;;;5137340;27;20057;-75
2023/01/15 11:38:52;;;;;;;6.80;1.70;;;7.50;82.30;;;;;;5119533;27;20035;-76
2023/01/15 11:52:16;;;;;;;2.42;1.02;;;7.60;82.40;;;;;;5155532;27;20035;-76
2023/01/15 11:54:46;;;;;;;5.10;1.00;;;7.60;82.40;;;;;;5120479;27;20366;-77
2023/01/15 11:57:24;;;;;;;5.18;1.38;;;7.60;82.20;;;;;;5155782;27;20095;-76
2023/01/15 11:59:50;;;;;;;4.38;1.15;;;7.50;82.30;;;;;;5156031;27;20043;-76
2023/01/15 12:02:36;;;;;;;2.85;1.02;;;7.50;82.50;;;;;;5154940;27;20137;-76
2023/01/15 12:05:04;;;;;;;4.43;1.00;;;7.50;82.90;;;;;;5137807;27;20038;-76
2023/01/15 12:07:30;;;;;;;6.10;1.38;;;7.30;83.00;;;;;;5155949;27;20047;-76
2023/01/15 12:10:17;;;;;;;3.35;0.93;;;7.40;83.10;;;;;;5137627;27;20045;-76
2023/01/15 12:13:05;;;;;;;3.03;1.00;;;7.40;83.10;;;;;;5156083;27;20396;-76
2023/01/15 12:15:50;;;;;;;3.80;1.08;;;7.50;83.30;;;;;;5156663;27;20045;-77
2023/01/15 12:18:48;;;;;;;6.82;1.50;;;7.60;82.90;;;;;;5156007;27;20409;-76
2023/01/15 12:21:37;;;;;;;4.15;1.38;;;7.70;82.10;;;;;;5123701;27;20039;-77
2023/01/15 12:24:26;;;;;;;2.95;1.00;;;7.80;81.90;;;;;;5155338;27;20067;-76
2023/01/15 12:27:29;;;;;;;3.22;1.25;;;7.90;81.90;;;;;;5154482;27;20046;-77
2023/01/15 12:30:01;;;;;;;3.92;1.25;;;8.00;81.50;;;;;;5126865;27;20401;-77
2023/01/15 12:32:34;;;;;;;5.72;1.23;;;7.90;81.40;;;;;;5138188;27;20039;-76
2023/01/15 12:35:14;;;;;;;4.72;1.30;;;7.90;81.40;;;;;;5138004;27;20101;-77
2023/01/15 12:37:46;;;;;;;5.25;1.17;;;7.90;81.40;;;;;;5138251;27;20031;-77
2023/01/15 12:40:24;;;;;;;3.45;0.95;;;7.90;81.40;;;;;;5158152;27;20047;-77
2023/01/15 12:45:50;;;;;;;4.10;1.00;;;7.40;82.40;;;;;;5141619;27;20034;-76
2023/01/15 12:48:22;;;;;;;2.85;1.20;;;7.30;83.20;;;;;;5157794;27;20043;-75
2023/01/15 12:50:51;;;;;;;3.42;1.13;;;7.10;83.50;;;;;;5137556;27;20062;-75
2023/01/15 12:53:42;;;;;;;2.75;1.10;;;7.10;83.80;;;;;;5122187;27;20378;-76
2023/01/15 12:56:31;;;;;;;2.40;0.82;;;7.10;83.90;;;;;;5137909;27;20096;-75
2023/01/15 12:59:32;;;;;;;2.65;1.13;;;7.10;84.00;;;;;;5125532;27;20070;-76
2023/01/15 13:02:11;;;;;;;2.78;1.10;;;7.10;84.00;;;;;;5139386;27;20054;-75
2023/01/15 13:04:57;;;;;;;4.45;1.30;;;7.10;84.00;;;;;;5139263;27;20038;-75
2023/01/15 13:07:34;;;;;;;2.10;1.05;;;7.20;84.20;;;;;;5157704;27;20050;-74
2023/01/15 13:10:16;;;;;;;3.67;1.17;;;7.20;84.20;;;;;;5157832;27;20156;-75
2023/01/15 13:12:42;;;;;;;2.10;1.17;;;7.30;84.00;;;;;;5138117;27;20167;-76
2023/01/15 13:15:14;;;;;;;2.30;1.08;;;7.40;83.80;;;;;;5157752;27;20426;-74
2023/01/15 13:18:01;;;;;;;3.42;1.15;;;7.50;83.80;;;;;;5138861;27;20122;-75
2023/01/15 13:20:50;;;;;;;3.65;1.33;;;7.60;83.60;;;;;;5157143;27;20594;-75
2023/01/15 13:23:54;;;;;;;4.43;1.08;;;7.60;83.40;;;;;;5122035;27;20042;-74
2023/01/15 13:26:45;;;;;;;2.53;1.15;;;7.60;83.40;;;;;;5156825;27;20046;-75
2023/01/15 13:29:44;;;;;;;2.63;0.85;;;7.60;83.40;;;;;;5138560;27;20038;-76
2023/01/15 13:32:17;;;;;;;1.70;0.82;;;7.60;83.40;;;;;;5157047;27;20041;-74
2023/01/15 13:34:48;;;;;;;3.45;1.13;;;7.60;83.40;;;;;;5157392;27;20488;-75
2023/01/15 13:37:27;;;;;;;4.55;1.15;;;7.50;83.30;;;;;;5138700;27;20122;-74
2023/01/15 13:39:59;;;;;;;3.63;1.05;;;7.60;83.40;;;;;;5156635;27;20042;-74
2023/01/15 13:42:41;;;;;;;5.82;1.35;;;7.60;83.40;;;;;;5119317;27;20049;-75
2023/01/15 13:45:32;;;;;;;4.85;1.10;;;7.60;83.40;;;;;;5140548;27;20485;-75
2023/01/15 13:48:10;;;;;;;3.58;1.30;;;7.70;83.20;;;;;;5136981;27;20054;-75
2023/01/15 13:50:41;;;;;;;3.50;0.80;;;7.60;83.20;;;;;;5138762;27;20126;-75
2023/01/15 13:53:21;;;;;;;1.83;0.98;;;7.60;83.40;;;;;;5156966;27;20428;-76
2023/01/15 13:56:08;;;;;;;4.55;1.20;;;7.60;83.70;;;;;;5137768;27;20066;-75
2023/01/15 13:58:38;;;;;;;3.88;1.33;;;7.50;83.70;;;;;;5137728;27;20061;-75
2023/01/15 14:01:23;;;;;;;4.32;1.30;;;7.40;83.70;;;;;;5121425;27;20030;-76
2023/01/15 14:04:12;;;;;;;3.80;1.40;;;7.30;84.00;;;;;;5138381;27;21346;-76
2023/01/15 14:06:46;;;;;;;4.47;1.40;;;7.20;84.50;;;;;;5138195;27;20095;-74
2023/01/15 14:09:30;;;;;;;3.80;1.30;;;7.20;84.80;;;;;;5136509;27;20043;-75
2023/01/15 14:12:15;;;;;;;2.78;1.00;;;7.00;85.00;;;;;;5152931;27;20030;-75
2023/01/15 14:15:04;;;;;;;3.30;1.10;;;7.00;85.40;;;;;;5137789;27;20035;-75